createdAt,value
2018-03-31T00:01:17.308Z,11.91
2018-03-31T00:03:44.902Z,11.87
2018-03-31T00:06:13.247Z,11.81
2018-03-31T00:08:42.503Z,11.74
2018-03-31T00:11:10.027Z,11.77
2018-03-31T00:13:38.342Z,11.70
2018-03-31T00:16:05.855Z,11.67
2018-03-31T00:18:34.136Z,11.67
2018-03-31T00:21:02.407Z,11.66
2018-03-31T00:23:30.680Z,11.49
2018-03-31T00:25:59.140Z,11.37
2018-03-31T00:28:26.601Z,10.85
2018-03-31T00:30:54.076Z,10.94
2018-03-31T00:33:22.317Z,11.05
2018-03-31T00:35:49.814Z,11.13
2018-03-31T00:38:18.057Z,11.23
2018-03-31T00:40:45.663Z,11.26
2018-03-31T00:43:13.918Z,11.25
2018-03-31T00:45:41.362Z,11.29
2018-03-31T00:48:08.811Z,11.35
2018-03-31T00:50:36.305Z,11.19
2018-03-31T00:53:03.937Z,11.25
2018-03-31T00:55:31.403Z,11.30
2018-03-31T00:57:59.632Z,11.30
2018-03-31T01:00:27.112Z,11.10
2018-03-31T01:02:54.705Z,11.17
2018-03-31T01:05:23.130Z,11.17
2018-03-31T01:07:50.586Z,11.21
2018-03-31T01:10:18.045Z,11.19
2018-03-31T01:12:45.523Z,11.16
2018-03-31T01:15:13.298Z,11.18
2018-03-31T01:17:41.717Z,11.14
2018-03-31T01:20:09.166Z,11.07
2018-03-31T01:22:37.403Z,11.03
2018-03-31T01:25:04.889Z,11.02
2018-03-31T01:27:33.133Z,11.05
2018-03-31T01:30:00.678Z,11.08
2018-03-31T01:32:28.163Z,11.08
2018-03-31T01:34:56.741Z,11.04
2018-03-31T01:37:24.326Z,10.99
2018-03-31T01:39:52.536Z,11.01
2018-03-31T01:42:20.311Z,10.96
2018-03-31T01:44:47.782Z,10.98
2018-03-31T01:47:15.227Z,10.96
2018-03-31T01:49:42.897Z,10.87
2018-03-31T01:52:10.328Z,10.87
2018-03-31T01:54:37.786Z,10.85
2018-03-31T01:57:06.891Z,10.75
2018-03-31T01:59:34.368Z,10.72
2018-03-31T02:02:02.142Z,10.61
2018-03-31T02:04:29.601Z,10.69
2018-03-31T02:06:57.084Z,10.72
2018-03-31T02:09:25.292Z,10.75
2018-03-31T02:11:52.786Z,10.76
2018-03-31T02:14:20.249Z,10.75
2018-03-31T02:16:47.717Z,10.70
2018-03-31T02:19:15.971Z,10.55
2018-03-31T02:21:43.440Z,10.08
2018-03-31T02:24:10.898Z,9.89
2018-03-31T02:26:38.454Z,10.04
2018-03-31T02:29:05.982Z,9.83
2018-03-31T02:31:33.408Z,9.91
2018-03-31T02:34:00.927Z,10.06
2018-03-31T02:36:29.870Z,10.19
2018-03-31T02:38:57.349Z,10.29
2018-03-31T02:41:24.957Z,10.43
2018-03-31T02:43:52.692Z,10.43
2018-03-31T02:46:20.137Z,10.36
2018-03-31T02:48:47.602Z,10.28
2018-03-31T02:51:15.060Z,10.31
2018-03-31T02:53:42.626Z,10.26
2018-03-31T02:56:10.089Z,10.25
2018-03-31T02:58:37.524Z,10.27
2018-03-31T03:01:05.025Z,10.25
2018-03-31T03:03:33.551Z,10.26
2018-03-31T03:06:01.069Z,10.27
2018-03-31T03:08:29.338Z,10.19
2018-03-31T03:10:57.546Z,10.16
2018-03-31T03:13:25.017Z,10.10
2018-03-31T03:15:52.567Z,10.01
2018-03-31T03:18:20.244Z,10.04
2018-03-31T03:20:47.688Z,10.06
2018-03-31T03:23:15.156Z,10.05
2018-03-31T03:25:42.674Z,9.94
2018-03-31T03:28:10.121Z,9.91
2018-03-31T03:30:37.690Z,9.96
2018-03-31T03:33:05.147Z,9.91
2018-03-31T03:35:32.698Z,9.87
2018-03-31T03:38:00.182Z,9.93
2018-03-31T03:40:27.626Z,9.88
2018-03-31T03:42:55.062Z,9.68
2018-03-31T03:45:23.298Z,9.78
2018-03-31T03:47:51.519Z,9.83
2018-03-31T03:50:19.740Z,9.88
2018-03-31T03:52:47.200Z,9.97
2018-03-31T03:55:14.824Z,9.57
2018-03-31T03:57:42.347Z,9.66
2018-03-31T04:00:09.819Z,9.41
2018-03-31T04:02:38.028Z,9.60
2018-03-31T04:05:05.457Z,9.65
2018-03-31T04:07:33.110Z,9.66
2018-03-31T04:10:01.654Z,9.71
2018-03-31T04:12:29.084Z,9.76
2018-03-31T04:14:56.506Z,9.78
2018-03-31T04:17:24.729Z,9.34
2018-03-31T04:19:52.171Z,9.13
2018-03-31T04:22:19.635Z,9.38
2018-03-31T04:24:47.113Z,9.28
2018-03-31T04:27:14.610Z,9.25
2018-03-31T04:29:42.076Z,9.37
2018-03-31T04:32:09.537Z,9.42
2018-03-31T04:34:37.760Z,9.47
2018-03-31T04:37:05.174Z,9.42
2018-03-31T04:39:32.677Z,8.92
2018-03-31T04:42:00.230Z,8.92
2018-03-31T04:44:27.688Z,8.77
2018-03-31T04:46:55.119Z,8.81
2018-03-31T04:49:22.586Z,8.82
2018-03-31T04:51:50.038Z,8.80
2018-03-31T04:54:18.540Z,8.77
2018-03-31T04:56:46.002Z,8.92
2018-03-31T04:59:13.704Z,9.04
2018-03-31T05:01:41.327Z,9.28
2018-03-31T05:04:08.820Z,9.51
2018-03-31T05:06:37.052Z,9.21
2018-03-31T05:09:04.469Z,8.98
2018-03-31T05:11:31.945Z,9.21
2018-03-31T05:13:59.425Z,9.33
2018-03-31T05:16:27.015Z,9.41
2018-03-31T05:18:54.593Z,9.23
2018-03-31T05:21:22.128Z,9.25
2018-03-31T05:23:49.767Z,9.35
2018-03-31T05:26:17.224Z,9.39
2018-03-31T05:28:44.694Z,9.39
2018-03-31T05:31:12.174Z,9.30
2018-03-31T05:33:39.737Z,9.33
2018-03-31T05:36:07.975Z,9.26
2018-03-31T05:38:36.970Z,9.31
2018-03-31T05:41:04.438Z,9.25
2018-03-31T05:43:31.887Z,9.30
2018-03-31T05:45:59.354Z,9.29
2018-03-31T05:48:26.819Z,9.30
2018-03-31T05:50:55.039Z,9.32
2018-03-31T05:53:22.588Z,9.40
2018-03-31T05:55:50.075Z,9.44
2018-03-31T05:58:17.548Z,9.58
2018-03-31T06:00:46.500Z,9.65
2018-03-31T06:03:13.938Z,9.74
2018-03-31T06:05:41.494Z,9.76
2018-03-31T06:08:09.024Z,9.75
2018-03-31T06:10:37.369Z,9.74
2018-03-31T06:13:04.905Z,9.59
2018-03-31T06:15:32.388Z,9.70
2018-03-31T06:18:00.159Z,9.68
2018-03-31T06:20:27.599Z,9.68
2018-03-31T06:22:56.656Z,9.83
2018-03-31T06:25:24.131Z,9.92
2018-03-31T06:27:51.582Z,10.01
2018-03-31T06:30:19.090Z,10.01
2018-03-31T06:32:46.564Z,10.04
2018-03-31T06:35:14.140Z,10.08
2018-03-31T06:37:41.605Z,10.21
2018-03-31T06:40:09.073Z,10.17
2018-03-31T06:42:36.581Z,10.29
2018-03-31T06:45:04.191Z,10.35
2018-03-31T06:47:31.624Z,10.44
2018-03-31T06:49:59.832Z,10.56
2018-03-31T06:52:27.381Z,10.64
2018-03-31T06:54:55.010Z,10.74
2018-03-31T06:57:22.538Z,10.81
2018-03-31T06:59:50.009Z,10.86
2018-03-31T07:02:17.526Z,10.91
2018-03-31T07:04:45.046Z,11.04
2018-03-31T07:07:13.380Z,11.15
2018-03-31T07:09:40.872Z,11.19
2018-03-31T07:12:09.136Z,11.05
2018-03-31T07:14:36.595Z,11.02
2018-03-31T07:17:04.207Z,11.02
2018-03-31T07:19:31.673Z,11.16
2018-03-31T07:21:59.125Z,11.32
2018-03-31T07:24:26.599Z,11.44
2018-03-31T07:26:55.520Z,11.39
2018-03-31T07:29:23.845Z,11.42
2018-03-31T07:31:51.309Z,11.46
2018-03-31T07:34:18.793Z,11.48
2018-03-31T07:36:46.478Z,11.58
2018-03-31T07:39:13.939Z,11.55
2018-03-31T07:41:42.165Z,11.60
2018-03-31T07:44:09.685Z,11.69
2018-03-31T07:46:37.899Z,11.73
2018-03-31T07:49:05.459Z,11.72
2018-03-31T07:51:33.222Z,11.80
2018-03-31T07:54:00.720Z,11.90
2018-03-31T07:56:28.436Z,11.89
2018-03-31T07:58:56.765Z,11.92
2018-03-31T08:01:24.234Z,11.96
2018-03-31T08:03:52.506Z,11.98
2018-03-31T08:06:19.995Z,12.03
2018-03-31T08:08:47.481Z,12.08
2018-03-31T08:11:14.976Z,12.10
2018-03-31T08:13:43.354Z,12.23
2018-03-31T08:16:10.805Z,12.31
2018-03-31T08:18:38.294Z,12.37
2018-03-31T08:21:05.795Z,12.44
2018-03-31T08:23:33.393Z,12.55
2018-03-31T08:26:01.636Z,12.64
2018-03-31T08:28:29.114Z,12.68
2018-03-31T08:30:56.591Z,12.62
2018-03-31T08:33:24.812Z,12.64
2018-03-31T08:35:52.515Z,12.54
2018-03-31T08:38:19.989Z,12.42
2018-03-31T08:40:47.460Z,12.42
2018-03-31T08:43:15.020Z,12.51
2018-03-31T08:45:42.482Z,12.53
2018-03-31T08:48:10.231Z,12.57
2018-03-31T08:50:38.479Z,12.34
2018-03-31T08:53:05.951Z,12.24
2018-03-31T08:55:34.227Z,12.02
2018-03-31T08:58:01.685Z,12.08
2018-03-31T09:00:29.935Z,12.12
2018-03-31T09:02:57.424Z,12.12
2018-03-31T09:05:25.748Z,12.42
2018-03-31T09:07:53.214Z,12.62
2018-03-31T09:10:20.746Z,12.79
2018-03-31T09:12:48.222Z,12.67
2018-03-31T09:15:15.721Z,12.55
2018-03-31T09:17:43.265Z,12.43
2018-03-31T09:20:10.786Z,12.55
2018-03-31T09:22:38.231Z,12.74
2018-03-31T09:25:05.766Z,12.94
2018-03-31T09:27:34.199Z,13.10
2018-03-31T09:30:01.687Z,13.01
2018-03-31T09:32:29.920Z,13.05
2018-03-31T09:34:57.395Z,13.15
2018-03-31T09:37:24.864Z,13.14
2018-03-31T09:39:53.639Z,13.15
2018-03-31T09:42:21.081Z,13.18
2018-03-31T09:44:48.577Z,13.28
2018-03-31T09:47:16.791Z,13.22
2018-03-31T09:49:44.295Z,13.35
2018-03-31T09:52:11.771Z,13.44
2018-03-31T09:54:39.996Z,13.47
2018-03-31T09:57:07.610Z,13.49
2018-03-31T09:59:35.101Z,13.58
2018-03-31T10:02:02.834Z,13.67
2018-03-31T10:04:31.085Z,13.64
2018-03-31T10:06:59.694Z,13.62
2018-03-31T10:09:27.939Z,13.74
2018-03-31T10:11:55.442Z,13.87
2018-03-31T10:14:23.678Z,13.89
2018-03-31T10:16:51.133Z,13.71
2018-03-31T10:19:18.622Z,13.58
2018-03-31T10:21:46.855Z,13.64
2018-03-31T10:24:14.343Z,15.06
2018-03-31T10:26:42.545Z,16.90
2018-03-31T10:29:10.195Z,18.16
2018-03-31T10:31:38.694Z,18.55
2018-03-31T10:34:06.191Z,19.03
2018-03-31T10:36:33.642Z,18.68
2018-03-31T10:39:01.585Z,18.21
2018-03-31T10:41:29.107Z,18.37
2018-03-31T10:43:57.362Z,17.77
2018-03-31T10:46:24.933Z,17.93
2018-03-31T10:48:53.164Z,18.14
2018-03-31T10:51:20.784Z,17.72
2018-03-31T10:53:49.021Z,17.02
2018-03-31T10:56:16.485Z,17.36
2018-03-31T10:58:43.966Z,17.58
2018-03-31T11:01:12.241Z,17.88
2018-03-31T11:03:40.454Z,18.12
2018-03-31T11:06:07.954Z,17.68
2018-03-31T11:08:35.579Z,17.25
2018-03-31T11:11:03.015Z,16.61
2018-03-31T11:13:30.471Z,16.08
2018-03-31T11:15:57.952Z,15.73
2018-03-31T11:18:25.620Z,15.68
2018-03-31T11:20:53.168Z,15.69
2018-03-31T11:23:20.660Z,15.67
2018-03-31T11:25:49.640Z,15.74
2018-03-31T11:28:17.094Z,15.89
2018-03-31T11:30:44.632Z,15.97
2018-03-31T11:33:12.074Z,15.98
2018-03-31T11:35:39.559Z,16.08
2018-03-31T11:38:06.991Z,15.86
2018-03-31T11:40:34.466Z,15.51
2018-03-31T11:43:01.934Z,15.42
2018-03-31T11:45:29.589Z,15.27
2018-03-31T11:47:57.091Z,15.29
2018-03-31T11:50:25.345Z,15.43
2018-03-31T11:52:53.602Z,15.69
2018-03-31T11:55:21.096Z,15.75
2018-03-31T11:57:49.404Z,15.65
2018-03-31T12:00:17.005Z,15.66
2018-03-31T12:02:44.479Z,15.71
2018-03-31T12:05:11.931Z,15.65
2018-03-31T12:07:39.532Z,15.53
2018-03-31T12:10:07.045Z,15.37
2018-03-31T12:12:34.485Z,15.35
2018-03-31T12:15:01.933Z,15.37
2018-03-31T12:17:29.455Z,15.20
2018-03-31T12:19:57.665Z,15.30
2018-03-31T12:22:25.175Z,15.31
2018-03-31T12:24:52.740Z,15.28
2018-03-31T12:27:21.000Z,15.34
2018-03-31T12:29:48.511Z,15.41
2018-03-31T12:32:16.000Z,15.60
2018-03-31T12:34:45.058Z,15.57
2018-03-31T12:37:12.547Z,15.60
2018-03-31T12:39:40.097Z,15.53
2018-03-31T12:42:07.580Z,15.54
2018-03-31T12:44:35.040Z,15.62
2018-03-31T12:47:02.527Z,15.54
2018-03-31T12:49:30.013Z,15.56
2018-03-31T12:51:57.537Z,15.73
2018-03-31T12:54:25.901Z,16.15
2018-03-31T12:56:54.195Z,16.50
2018-03-31T12:59:22.452Z,16.47
2018-03-31T13:01:50.741Z,16.42
2018-03-31T13:04:18.324Z,16.36
2018-03-31T13:06:47.396Z,16.23
2018-03-31T13:09:15.611Z,16.11
2018-03-31T13:11:43.131Z,16.04
2018-03-31T13:14:11.770Z,15.86
2018-03-31T13:16:39.384Z,15.81
2018-03-31T13:19:06.941Z,15.57
2018-03-31T13:21:34.527Z,15.48
2018-03-31T13:24:02.039Z,15.22
2018-03-31T13:26:30.255Z,15.10
2018-03-31T13:28:57.799Z,14.85
2018-03-31T13:31:25.431Z,14.40
2018-03-31T13:33:52.920Z,14.11
2018-03-31T13:36:20.421Z,14.12
2018-03-31T13:38:48.060Z,13.98
2018-03-31T13:41:15.569Z,14.12
2018-03-31T13:43:43.038Z,14.18
2018-03-31T13:46:11.366Z,14.33
2018-03-31T13:48:38.870Z,14.31
2018-03-31T13:51:06.637Z,14.16
2018-03-31T13:53:35.989Z,14.35
2018-03-31T13:56:05.495Z,14.40
2018-03-31T13:58:33.022Z,14.50
2018-03-31T14:01:00.702Z,14.61
2018-03-31T14:03:28.199Z,14.63
2018-03-31T14:05:55.770Z,14.66
2018-03-31T14:08:23.299Z,14.61
2018-03-31T14:10:50.807Z,14.57
2018-03-31T14:13:18.269Z,14.50
2018-03-31T14:15:45.941Z,14.51
2018-03-31T14:18:13.397Z,14.48
2018-03-31T14:20:40.931Z,14.53
2018-03-31T14:23:09.224Z,14.48
2018-03-31T14:25:36.707Z,14.53
2018-03-31T14:28:04.229Z,14.88
2018-03-31T14:30:31.944Z,14.86
2018-03-31T14:32:59.438Z,14.63
2018-03-31T14:35:27.755Z,14.39
2018-03-31T14:37:55.498Z,13.99
2018-03-31T14:40:23.775Z,13.73
2018-03-31T14:42:51.233Z,13.91
2018-03-31T14:45:18.724Z,14.15
2018-03-31T14:47:46.469Z,14.53
2018-03-31T14:50:13.932Z,14.89
2018-03-31T14:52:41.451Z,15.52
2018-03-31T14:55:09.683Z,15.87
2018-03-31T14:57:37.175Z,15.80
2018-03-31T15:00:04.926Z,15.51
2018-03-31T15:02:32.462Z,15.40
2018-03-31T15:05:00.006Z,15.31
2018-03-31T15:07:27.491Z,15.28
2018-03-31T15:09:54.981Z,15.55
2018-03-31T15:12:23.231Z,16.20
2018-03-31T15:14:50.751Z,18.37
2018-03-31T15:17:18.261Z,19.90
2018-03-31T15:19:46.925Z,21.47
2018-03-31T15:22:14.386Z,23.20
2018-03-31T15:24:42.633Z,24.58
2018-03-31T15:27:11.739Z,24.65
2018-03-31T15:29:39.447Z,23.23
2018-03-31T15:32:07.211Z,21.42
2018-03-31T15:34:35.463Z,19.82
2018-03-31T15:37:02.934Z,18.89
2018-03-31T15:39:31.951Z,18.07
2018-03-31T15:42:00.231Z,17.41
2018-03-31T15:44:27.792Z,16.89
2018-03-31T15:46:55.523Z,16.53
2018-03-31T15:49:22.996Z,16.19
2018-03-31T15:51:51.286Z,15.79
2018-03-31T15:54:18.752Z,15.49
2018-03-31T15:56:46.343Z,15.21
2018-03-31T15:59:13.813Z,15.13
2018-03-31T16:01:41.321Z,15.10
2018-03-31T16:04:08.818Z,15.05
2018-03-31T16:06:36.700Z,15.14
2018-03-31T16:09:05.139Z,15.21
2018-03-31T16:11:32.806Z,15.47
2018-03-31T16:14:00.441Z,17.07
2018-03-31T16:16:28.663Z,19.43
2018-03-31T16:18:56.216Z,21.21
2018-03-31T16:21:23.872Z,22.00
2018-03-31T16:23:51.596Z,23.00
2018-03-31T16:26:19.905Z,23.35
2018-03-31T16:28:47.471Z,24.12
2018-03-31T16:31:14.968Z,24.56
2018-03-31T16:33:42.513Z,24.79
2018-03-31T16:36:10.027Z,23.52
2018-03-31T16:38:37.541Z,22.48
2018-03-31T16:41:05.096Z,21.21
2018-03-31T16:43:33.532Z,19.49
2018-03-31T16:46:01.065Z,18.57
2018-03-31T16:48:29.404Z,17.50
2018-03-31T16:50:56.982Z,16.71
2018-03-31T16:53:24.579Z,16.22
2018-03-31T16:55:54.024Z,15.78
2018-03-31T16:58:21.513Z,15.65
2018-03-31T17:00:49.735Z,15.55
2018-03-31T17:03:17.269Z,15.42
2018-03-31T17:05:44.719Z,15.39
2018-03-31T17:08:13.041Z,15.38
2018-03-31T17:10:40.576Z,15.40
2018-03-31T17:13:08.096Z,15.38
2018-03-31T17:15:36.506Z,15.29
2018-03-31T17:18:04.060Z,15.25
2018-03-31T17:20:33.502Z,15.24
2018-03-31T17:23:01.788Z,15.10
2018-03-31T17:25:29.387Z,15.09
2018-03-31T17:27:57.110Z,15.05
2018-03-31T17:30:25.422Z,15.03
2018-03-31T17:32:54.571Z,15.04
2018-03-31T17:35:22.368Z,15.05
2018-03-31T17:37:50.436Z,15.03
2018-03-31T17:40:18.732Z,15.07
2018-03-31T17:42:47.256Z,14.98
2018-03-31T17:45:15.772Z,14.94
2018-03-31T17:47:43.247Z,14.92
2018-03-31T17:50:11.492Z,14.76
2018-03-31T17:52:38.957Z,14.72
2018-03-31T17:55:06.444Z,14.67
2018-03-31T17:57:34.777Z,14.60
2018-03-31T18:00:02.520Z,14.49
2018-03-31T18:02:30.759Z,14.40
2018-03-31T18:04:59.009Z,14.17
2018-03-31T18:07:27.312Z,14.04
2018-03-31T18:09:54.983Z,13.99
2018-03-31T18:12:22.630Z,13.97
2018-03-31T18:14:50.839Z,14.07
2018-03-31T18:17:18.342Z,14.13
2018-03-31T18:19:45.913Z,14.17
2018-03-31T18:22:14.212Z,14.15
2018-03-31T18:24:41.840Z,14.15
2018-03-31T18:27:09.338Z,14.14
2018-03-31T18:29:36.781Z,14.12
2018-03-31T18:32:04.479Z,14.07
2018-03-31T18:34:31.956Z,14.05
2018-03-31T18:36:59.511Z,13.97
2018-03-31T18:39:27.065Z,13.80
2018-03-31T18:41:55.023Z,13.60
2018-03-31T18:44:22.587Z,13.58
2018-03-31T18:46:50.142Z,13.62
2018-03-31T18:49:17.763Z,13.51
2018-03-31T18:51:45.983Z,13.57
2018-03-31T18:54:14.311Z,13.60
2018-03-31T18:56:42.541Z,13.61
2018-03-31T18:59:10.163Z,13.62
2018-03-31T19:01:37.727Z,13.61
2018-03-31T19:04:05.218Z,13.58
2018-03-31T19:06:32.749Z,13.59
2018-03-31T19:09:00.257Z,13.56
2018-03-31T19:11:27.775Z,13.52
2018-03-31T19:13:55.293Z,13.54
2018-03-31T19:16:29.144Z,13.18
2018-03-31T19:18:56.667Z,13.49
2018-03-31T19:21:24.858Z,13.34
2018-03-31T19:23:52.499Z,13.42
2018-03-31T19:26:20.912Z,13.45
2018-03-31T19:28:49.348Z,13.49
2018-03-31T19:31:17.628Z,13.50
2018-03-31T19:33:45.891Z,13.43
2018-03-31T19:36:17.265Z,13.31
2018-03-31T19:38:44.722Z,13.16
2018-03-31T19:41:13.144Z,12.98
2018-03-31T19:43:40.733Z,12.85
2018-03-31T19:46:09.313Z,12.80
2018-03-31T19:48:36.831Z,12.68
2018-03-31T19:51:04.353Z,12.72
2018-03-31T19:53:32.833Z,12.75
2018-03-31T19:56:01.150Z,12.69
2018-03-31T19:58:28.669Z,12.74
2018-03-31T20:00:56.889Z,12.72
2018-03-31T20:03:24.475Z,12.75
2018-03-31T20:05:52.036Z,12.71
2018-03-31T20:08:19.542Z,12.79
2018-03-31T20:10:47.062Z,12.80
2018-03-31T20:13:14.749Z,12.75
2018-03-31T20:15:42.278Z,12.78
2018-03-31T20:18:09.754Z,12.67
2018-03-31T20:20:38.244Z,12.75
2018-03-31T20:23:05.741Z,12.75
2018-03-31T20:25:33.249Z,12.79
2018-03-31T20:28:01.486Z,12.83
2018-03-31T20:30:29.009Z,12.90
2018-03-31T20:32:56.592Z,12.99
2018-03-31T20:35:24.348Z,13.01
2018-03-31T20:37:51.834Z,12.96
2018-03-31T20:40:19.386Z,13.00
2018-03-31T20:42:47.037Z,12.19
2018-03-31T20:45:14.500Z,12.21
2018-03-31T20:47:41.990Z,11.87
2018-03-31T20:50:10.224Z,11.41
2018-03-31T20:52:37.874Z,11.10
2018-03-31T20:55:05.368Z,10.86
2018-03-31T20:57:33.500Z,10.57
2018-03-31T21:00:01.009Z,10.81
2018-03-31T21:02:29.268Z,10.89
2018-03-31T21:04:57.130Z,10.90
2018-03-31T21:07:24.649Z,10.70
2018-03-31T21:09:52.412Z,10.86
2018-03-31T21:12:19.936Z,10.60
2018-03-31T21:14:48.339Z,10.72
2018-03-31T21:17:15.848Z,10.62
2018-03-31T21:19:43.469Z,10.76
2018-03-31T21:22:11.840Z,10.69
2018-03-31T21:24:39.417Z,10.61
2018-03-31T21:27:06.915Z,10.85
2018-03-31T21:29:34.523Z,11.03
2018-03-31T21:32:01.993Z,11.13
2018-03-31T21:34:29.484Z,11.24
2018-03-31T21:36:57.000Z,11.37
2018-03-31T21:39:24.687Z,11.57
2018-03-31T21:41:52.212Z,11.69
2018-03-31T21:44:19.708Z,11.80
2018-03-31T21:46:47.245Z,11.95
2018-03-31T21:49:14.874Z,12.03
2018-03-31T21:51:42.364Z,12.14
2018-03-31T21:54:09.855Z,12.20
2018-03-31T21:56:38.132Z,12.26
2018-03-31T21:59:06.488Z,12.34
2018-03-31T22:01:35.050Z,12.41
2018-03-31T22:04:02.705Z,12.38
2018-03-31T22:06:30.262Z,12.41
2018-03-31T22:08:57.832Z,12.41
2018-03-31T22:11:25.346Z,12.42
2018-03-31T22:13:59.019Z,12.36
2018-03-31T22:16:27.299Z,12.31
2018-03-31T22:18:54.795Z,12.25
2018-03-31T22:21:23.064Z,12.26
2018-03-31T22:23:51.388Z,12.27
2018-03-31T22:26:18.938Z,12.23
2018-03-31T22:28:46.426Z,12.22
2018-03-31T22:31:14.084Z,12.24
2018-03-31T22:33:41.611Z,12.20
2018-03-31T22:36:09.833Z,12.21
2018-03-31T22:38:37.546Z,12.23
2018-03-31T22:41:05.139Z,12.24
2018-03-31T22:43:32.663Z,12.25
2018-03-31T22:46:00.257Z,12.21
2018-03-31T22:48:27.838Z,12.19
2018-03-31T22:50:55.349Z,12.13
2018-03-31T22:53:22.910Z,12.15
2018-03-31T22:55:50.611Z,12.17
2018-03-31T22:58:18.115Z,12.18
2018-03-31T23:00:45.625Z,12.17
2018-03-31T23:03:13.278Z,12.25
2018-03-31T23:05:40.792Z,12.19
2018-03-31T23:08:08.469Z,12.29
2018-03-31T23:10:36.039Z,12.31
2018-03-31T23:13:03.541Z,12.29
2018-03-31T23:15:31.881Z,12.20
2018-03-31T23:17:59.390Z,12.05
2018-03-31T23:20:27.615Z,11.92
2018-03-31T23:22:55.173Z,11.80
2018-03-31T23:25:22.833Z,12.00
2018-03-31T23:27:50.357Z,12.07
2018-03-31T23:30:17.934Z,12.09
2018-03-31T23:32:45.436Z,12.13
2018-03-31T23:35:13.015Z,12.24
2018-03-31T23:37:41.448Z,12.29
2018-03-31T23:40:08.973Z,12.32
2018-03-31T23:42:36.498Z,12.33
2018-03-31T23:45:03.984Z,12.29
2018-03-31T23:47:31.450Z,12.29
2018-03-31T23:49:58.929Z,12.28
2018-03-31T23:52:26.392Z,12.25
2018-03-31T23:54:53.894Z,12.24
2018-03-31T23:57:22.155Z,12.22
2018-03-31T23:59:50.837Z,12.20
